Time;durP1;ratioP1;P1;durP2;ratioP2;P2;SDS_P1;SDS_P2;PMS_P1;PMS_P2;Temp;Humidity;BMP_temperature;BMP_pressure;BME280_temperature;BME280_humidity;BME280_pressure;Samples;Min_cycle;Max_cycle;Signal;HPM_P1;HPM_P2
2021/07/23 00:00:36;;;;;;;;;;;;;;;25.72;48.95;101882.63;2210589;39;115660;-53
2021/07/23 00:02:08;;;;;;;;;;;;;;;25.72;48.67;101881.78;2205959;39;115786;-53
2021/07/23 00:03:40;;;;;;;;;;;;;;;25.71;49.07;101872.50;2205497;39;114946;-53
2021/07/23 00:05:32;;;;;;;;;;;;;;;25.73;49.01;101883.47;2207994;39;113957;-54
2021/07/23 00:07:03;;;;;;;;;;;;;;;25.74;48.84;101880.34;2209510;39;114005;-54
2021/07/23 00:08:35;;;;;;;;;;;;;;;25.73;49.17;101874.97;2213385;39;113758;-54
2021/07/23 00:10:07;;;;;;;;;;;;;;;25.73;49.29;101878.66;2212485;39;113772;-54
2021/07/23 00:11:39;;;;;;;;;;;;;;;25.73;49.26;101881.50;2210759;39;113563;-54
2021/07/23 00:13:10;;;;;;;;;;;;;;;25.75;48.93;101872.69;2203396;39;113746;-54
2021/07/23 00:14:42;;;;;;;;;;;;;;;25.75;49.28;101882.03;2208286;39;114115;-53
2021/07/23 00:16:14;;;;;;;;;;;;;;;25.75;48.80;101872.69;2210183;39;113777;-53
2021/07/23 00:17:46;;;;;;;;;;;;;;;25.74;48.88;101871.84;2210389;39;113906;-54
2021/07/23 00:19:17;;;;;;;;;;;;;;;25.74;48.91;101874.69;2210343;39;114049;-54
2021/07/23 00:20:49;;;;;;;;;;;;;;;25.76;49.45;101871.53;2207023;39;113724;-53
2021/07/23 00:22:21;;;;;;;;;;;;;;;25.78;49.41;101870.03;2209582;39;113873;-54
2021/07/23 00:23:53;;;;;;;;;;;;;;;25.74;49.40;101871.84;2212115;39;113906;-53
2021/07/23 00:25:24;;;;;;;;;;;;;;;25.76;49.33;101863.84;2203687;39;114736;-53
2021/07/23 00:26:56;;;;;;;;;;;;;;;25.77;48.87;101871.19;2204763;39;114051;-53
2021/07/23 00:28:28;;;;;;;;;;;;;;;25.75;49.35;101867.84;2210101;39;115429;-53
2021/07/23 00:29:59;;;;;;;;;;;;;;;25.77;48.82;101868.34;2207752;39;115304;-54
2021/07/23 00:31:31;;;;;;;;;;;;;;;25.77;49.07;101864.69;2205081;39;114947;-53
2021/07/23 00:33:03;;;;;;;;;;;;;;;25.75;49.41;101865.03;2210373;39;114801;-53
2021/07/23 00:34:35;;;;;;;;;;;;;;;25.76;49.02;101857.38;2216122;39;113839;-53
2021/07/23 00:36:06;;;;;;;;;;;;;;;25.74;48.91;101852.03;2212870;39;115022;-54
2021/07/23 00:37:39;;;;;;;;;;;;;;;25.74;49.36;101854.84;2210053;39;114932;-53
2021/07/23 00:39:11;;;;;;;;;;;;;;;25.75;49.37;101852.88;2208687;39;114989;-54
2021/07/23 00:40:42;;;;;;;;;;;;;;;25.74;48.80;101851.19;2209510;39;115289;-54
2021/07/23 00:42:14;;;;;;;;;;;;;;;25.71;48.76;101852.69;2210830;39;114788;-54
2021/07/23 00:43:45;;;;;;;;;;;;;;;25.67;48.62;101852.47;2207004;39;113816;-54
2021/07/23 00:45:18;;;;;;;;;;;;;;;25.68;49.18;101844.81;2211343;39;114912;-54
2021/07/23 00:46:50;;;;;;;;;;;;;;;25.66;48.46;101852.81;2207555;39;115688;-54
2021/07/23 00:48:22;;;;;;;;;;;;;;;25.68;49.08;101851.31;2207371;39;115372;-54
2021/07/23 00:49:54;;;;;;;;;;;;;;;25.67;48.49;101843.97;2210673;39;115460;-54
2021/07/23 00:51:26;;;;;;;;;;;;;;;25.68;48.62;101853.31;2207003;39;115923;-54
2021/07/23 00:52:58;;;;;;;;;;;;;;;25.65;48.67;101848.28;2210646;39;115796;-54
2021/07/23 00:54:30;;;;;;;;;;;;;;;25.65;48.66;101842.63;2210800;39;115454;-54
2021/07/23 00:56:02;;;;;;;;;;;;;;;25.65;48.89;101848.28;2211095;39;115576;-54
2021/07/23 00:57:35;;;;;;;;;;;;;;;25.62;49.23;101844.09;2205991;39;115809;-54
2021/07/23 00:59:07;;;;;;;;;;;;;;;25.59;48.69;101838.25;2208297;39;115426;-54
2021/07/23 01:00:40;;;;;;;;;;;;;;;25.58;49.03;101845.91;2203678;39;114974;-54
2021/07/23 01:02:12;;;;;;;;;;;;;;;25.61;48.64;101845.28;2208438;39;116013;-54
2021/07/23 01:03:44;;;;;;;;;;;;;;;25.61;48.97;101838.78;2208765;39;115035;-54
2021/07/23 01:05:16;;;;;;;;;;;;;;;25.57;48.79;101832.09;2204228;39;114637;-54
2021/07/23 01:06:48;;;;;;;;;;;;;;;25.56;49.06;101834.09;2210369;39;114554;-54
2021/07/23 01:08:20;;;;;;;;;;;;;;;25.54;48.78;101827.88;2211559;39;115807;-53
2021/07/23 01:09:52;;;;;;;;;;;;;;;25.54;48.71;101824.22;2212140;39;113739;-54
2021/07/23 01:11:24;;;;;;;;;;;;;;;25.56;48.53;101819.94;2210183;39;114127;-54
2021/07/23 01:12:56;;;;;;;;;;;;;;;25.52;48.63;101827.38;2207969;39;113868;-54
2021/07/23 01:14:27;;;;;;;;;;;;;;;25.56;48.42;101830.41;2210163;39;113654;-54
2021/07/23 01:15:59;;;;;;;;;;;;;;;25.53;48.78;101825.38;2209354;39;113952;-54
2021/07/23 01:17:31;;;;;;;;;;;;;;;25.51;48.48;101827.69;2207576;39;113713;-54
2021/07/23 01:19:05;;;;;;;;;;;;;;;25.50;48.40;101823.16;2209651;39;113803;-54
2021/07/23 01:20:38;;;;;;;;;;;;;;;25.49;48.08;101821.47;2209568;39;113749;-54
2021/07/23 01:22:12;;;;;;;;;;;;;;;25.49;47.98;101824.31;2210204;39;113662;-54
2021/07/23 01:23:43;;;;;;;;;;;;;;;25.50;48.20;101820.34;2210295;39;113649;-54
2021/07/23 01:25:16;;;;;;;;;;;;;;;25.49;47.86;101824.31;2210945;39;113749;-54
2021/07/23 01:26:50;;;;;;;;;;;;;;;25.47;47.98;101824.66;2210341;39;113917;-54
2021/07/23 01:28:22;;;;;;;;;;;;;;;25.45;48.15;101817.63;2209741;39;113844;-54
2021/07/23 01:30:00;;;;;;;;;;;;;;;25.43;47.92;101817.97;2214467;39;114043;-54
2021/07/23 01:31:32;;;;;;;;;;;;;;;25.46;47.98;101813.66;2208370;39;115056;-54
2021/07/23 01:33:03;;;;;;;;;;;;;;;25.44;48.53;101819.63;2206940;39;114867;-54
2021/07/23 01:34:35;;;;;;;;;;;;;;;25.44;47.94;101816.78;2209273;39;115465;-54
2021/07/23 01:36:07;;;;;;;;;;;;;;;25.39;48.07;101811.28;2208757;39;115088;-54
2021/07/23 01:37:40;;;;;;;;;;;;;;;25.40;48.20;101812.94;2211461;39;114767;-54
2021/07/23 01:39:14;;;;;;;;;;;;;;;25.39;48.27;101816.09;2210480;39;114415;-54
2021/07/23 01:40:46;;;;;;;;;;;;;;;25.38;47.83;101809.59;2210854;39;114736;-54
2021/07/23 01:42:18;;;;;;;;;;;;;;;25.38;48.34;101815.25;2210534;39;114875;-54
2021/07/23 01:43:50;;;;;;;;;;;;;;;25.38;47.85;101811.59;2211129;39;115040;-54
2021/07/23 01:45:22;;;;;;;;;;;;;;;25.35;47.91;101815.06;2210000;39;114650;-54
2021/07/23 01:46:53;;;;;;;;;;;;;;;25.35;48.45;101807.38;2204862;39;115038;-54
2021/07/23 01:48:25;;;;;;;;;;;;;;;25.35;48.36;101812.25;2211417;39;114874;-54
2021/07/23 01:49:57;;;;;;;;;;;;;;;25.39;48.25;101813.28;2211429;39;115137;-54
2021/07/23 01:51:29;;;;;;;;;;;;;;;25.37;47.98;101810.75;2214308;39;114924;-54
2021/07/23 01:53:00;;;;;;;;;;;;;;;25.33;48.26;101806.91;2211120;39;115295;-54
2021/07/23 01:54:32;;;;;;;;;;;;;;;25.34;48.52;101810.56;2211232;39;115586;-54
2021/07/23 01:56:04;;;;;;;;;;;;;;;25.31;48.16;101814.84;2216362;39;116357;-54
2021/07/23 01:57:36;;;;;;;;;;;;;;;25.29;48.35;101816.34;2209833;39;114761;-53
2021/07/23 01:59:08;;;;;;;;;;;;;;;25.30;48.39;101810.38;2208252;39;115763;-54
2021/07/23 02:00:39;;;;;;;;;;;;;;;25.29;48.38;101813.50;2211109;39;116027;-54
2021/07/23 02:02:11;;;;;;;;;;;;;;;25.27;48.83;101807.31;2211513;39;116115;-54
2021/07/23 02:03:43;;;;;;;;;;;;;;;25.31;48.63;101814.00;2211490;39;115122;-54
2021/07/23 02:05:15;;;;;;;;;;;;;;;25.23;48.60;101819.28;2210241;39;116114;-54
2021/07/23 02:06:47;;;;;;;;;;;;;;;25.27;48.58;101815.81;2208351;39;115541;-54
2021/07/23 02:08:19;;;;;;;;;;;;;;;25.22;48.53;101813.94;2208461;39;114605;-54
2021/07/23 02:09:50;;;;;;;;;;;;;;;25.26;48.79;101823.47;2212650;39;114755;-54
2021/07/23 02:11:22;;;;;;;;;;;;;;;25.23;48.95;101816.47;2203650;39;115816;-54
2021/07/23 02:12:55;;;;;;;;;;;;;;;25.22;48.92;101816.78;2213015;39;115634;-54
2021/07/23 02:14:29;;;;;;;;;;;;;;;25.24;48.78;101818.16;2207994;39;113828;-54
2021/07/23 02:16:03;;;;;;;;;;;;;;;25.22;49.24;101826.09;2208313;39;113963;-54
2021/07/23 02:17:35;;;;;;;;;;;;;;;25.24;48.81;101826.63;2208986;39;114075;-54
2021/07/23 02:19:06;;;;;;;;;;;;;;;25.24;48.78;101826.63;2211467;39;113886;-54
2021/07/23 02:20:38;;;;;;;;;;;;;;;25.26;49.12;101825.47;2208592;39;114852;-54
2021/07/23 02:22:10;;;;;;;;;;;;;;;25.23;49.06;101824.94;2208522;39;114123;-54
2021/07/23 02:23:42;;;;;;;;;;;;;;;25.21;48.83;101827.25;2210747;39;114595;-53
2021/07/23 02:25:14;;;;;;;;;;;;;;;25.19;49.16;101823.06;2207986;39;115490;-54
2021/07/23 02:26:46;;;;;;;;;;;;;;;25.18;49.04;101819.41;2211080;39;113876;-55
2021/07/23 02:28:17;;;;;;;;;;;;;;;25.15;49.18;101825.72;2210231;39;114570;-54
2021/07/23 02:29:49;;;;;;;;;;;;;;;25.17;49.14;101816.88;2209349;39;113853;-54
2021/07/23 02:31:21;;;;;;;;;;;;;;;25.16;49.38;101830.22;2214714;39;113823;-53
2021/07/23 02:32:52;;;;;;;;;;;;;;;25.15;48.99;101817.22;2211301;39;114070;-54
2021/07/23 02:34:24;;;;;;;;;;;;;;;25.17;49.28;101814.06;2207359;39;114003;-54
2021/07/23 02:35:56;;;;;;;;;;;;;;;25.13;49.20;101824.34;2212985;39;114088;-54
2021/07/23 02:37:27;;;;;;;;;;;;;;;25.11;49.35;101812.53;2209171;39;113982;-54
2021/07/23 02:38:59;;;;;;;;;;;;;;;25.09;49.50;101818.50;2210934;39;113988;-54
2021/07/23 02:40:31;;;;;;;;;;;;;;;25.08;49.35;101816.81;2209025;39;114938;-54
2021/07/23 02:42:02;;;;;;;;;;;;;;;25.09;49.16;101814.81;2207867;39;114791;-54
2021/07/23 02:43:34;;;;;;;;;;;;;;;25.11;49.32;101809.69;2207229;39;115184;-54
2021/07/23 02:45:06;;;;;;;;;;;;;;;25.09;49.12;101814.81;2208032;39;115499;-54
2021/07/23 02:46:38;;;;;;;;;;;;;;;25.10;49.50;101808.84;2212661;39;114827;-54
2021/07/23 02:48:10;;;;;;;;;;;;;;;25.08;49.44;101810.31;2215471;39;115174;-54
2021/07/23 02:49:42;;;;;;;;;;;;;;;25.05;49.49;101803.31;2207426;39;115541;-54
2021/07/23 02:51:13;;;;;;;;;;;;;;;25.06;49.28;101805.00;2213954;39;114960;-54
2021/07/23 02:52:45;;;;;;;;;;;;;;;25.08;49.30;101808.31;2210353;39;114307;-54
2021/07/23 02:54:17;;;;;;;;;;;;;;;25.13;49.14;101804.53;2209988;39;115176;-54
2021/07/23 02:55:50;;;;;;;;;;;;;;;25.02;49.53;101803.13;2201472;39;114067;-54
2021/07/23 02:57:22;;;;;;;;;;;;;;;25.03;49.65;101799.16;2207869;39;114159;-54
2021/07/23 02:58:54;;;;;;;;;;;;;;;25.07;49.31;101806.69;2211798;39;114709;-54
2021/07/23 03:00:26;;;;;;;;;;;;;;;25.03;49.63;101796.31;2211452;39;114877;-54
2021/07/23 03:01:57;;;;;;;;;;;;;;;25.02;49.52;101803.97;2215123;39;115839;-55
2021/07/23 03:03:30;;;;;;;;;;;;;;;25.02;49.35;101795.50;2212283;39;115586;-54
2021/07/23 03:05:02;;;;;;;;;;;;;;;25.03;49.12;101794.31;2211046;39;115498;-54
2021/07/23 03:06:33;;;;;;;;;;;;;;;25.04;49.25;101790.34;2211408;39;115554;-54
2021/07/23 03:08:06;;;;;;;;;;;;;;;25.02;49.79;101784.19;2211512;39;115469;-54
2021/07/23 03:09:38;;;;;;;;;;;;;;;25.02;49.65;101783.34;2210057;39;114967;-54
2021/07/23 03:11:09;;;;;;;;;;;;;;;25.05;49.38;101779.84;2211388;39;115485;-54
2021/07/23 03:12:41;;;;;;;;;;;;;;;25.02;49.69;101778.53;2210469;39;115859;-53
2021/07/23 03:14:12;;;;;;;;;;;;;;;25.02;49.52;101769.19;2211330;39;115529;-54
2021/07/23 03:15:44;;;;;;;;;;;;;;;25.00;49.52;101769.50;2207130;39;114916;-54
2021/07/23 03:17:16;;;;;;;;;;;;;;;24.99;49.64;101762.16;2214667;39;114665;-54
2021/07/23 03:18:48;;;;;;;;;;;;;;;25.00;49.47;101769.50;2215510;39;115628;-54
2021/07/23 03:20:20;;;;;;;;;;;;;;;24.99;49.54;101767.81;2210541;39;113779;-54
2021/07/23 03:21:54;;;;;;;;;;;;;;;24.99;49.47;101762.16;2210472;39;113887;-54
2021/07/23 03:23:25;;;;;;;;;;;;;;;24.99;49.73;101753.69;2208347;39;113704;-54
2021/07/23 03:24:57;;;;;;;;;;;;;;;24.98;49.47;101768.16;2209459;39;113913;-54
2021/07/23 03:26:29;;;;;;;;;;;;;;;24.97;49.56;101764.50;2211193;39;113590;-54
2021/07/23 03:28:01;;;;;;;;;;;;;;;24.95;49.43;101755.47;2210881;39;113730;-53
2021/07/23 03:29:32;;;;;;;;;;;;;;;24.97;49.66;101750.34;2210491;39;113759;-54
2021/07/23 03:31:04;;;;;;;;;;;;;;;24.94;49.65;101756.63;2209305;39;113991;-56
2021/07/23 03:32:36;;;;;;;;;;;;;;;24.96;49.50;101754.34;2210143;39;113963;-53
2021/07/23 03:34:08;;;;;;;;;;;;;;;24.95;49.75;101749.00;2210734;39;113633;-53
2021/07/23 03:35:39;;;;;;;;;;;;;;;24.92;49.92;101752.47;2208402;39;113677;-53
2021/07/23 03:37:11;;;;;;;;;;;;;;;24.92;49.45;101750.47;2210916;39;113879;-54
2021/07/23 03:38:43;;;;;;;;;;;;;;;24.88;49.76;101746.63;2207677;39;113711;-55
2021/07/23 03:40:15;;;;;;;;;;;;;;;24.91;49.75;101750.78;2211731;39;113773;-54
2021/07/23 03:41:47;;;;;;;;;;;;;;;24.89;49.31;101759.59;2211210;39;115038;-54
2021/07/23 03:43:18;;;;;;;;;;;;;;;24.91;49.31;101757.28;2211315;39;114746;-54
2021/07/23 03:44:50;;;;;;;;;;;;;;;24.89;49.60;101756.78;2210656;39;115189;-54
2021/07/23 03:46:22;;;;;;;;;;;;;;;24.89;49.33;101761.59;2206627;39;114257;-53
2021/07/23 03:47:54;;;;;;;;;;;;;;;24.90;49.71;101761.25;2209980;39;114805;-53
2021/07/23 03:49:25;;;;;;;;;;;;;;;24.87;49.70;101759.06;2209714;39;114920;-54
2021/07/23 03:50:57;;;;;;;;;;;;;;;24.86;49.62;101756.53;2210355;39;115015;-54
2021/07/23 03:52:28;;;;;;;;;;;;;;;24.84;49.55;101765.34;2210490;39;114787;-54
2021/07/23 03:54:01;;;;;;;;;;;;;;;24.84;49.35;101765.34;2210001;39;115149;-54
2021/07/23 03:55:32;;;;;;;;;;;;;;;24.85;49.68;101764.16;2210553;39;114998;-54
2021/07/23 03:57:04;;;;;;;;;;;;;;;24.81;49.65;101763.97;2210501;39;114719;-54
2021/07/23 03:58:36;;;;;;;;;;;;;;;24.83;49.56;101763.66;2210877;39;114406;-54
2021/07/23 04:00:09;;;;;;;;;;;;;;;24.82;49.31;101770.47;2210295;39;113887;-53
2021/07/23 04:01:40;;;;;;;;;;;;;;;24.84;49.38;101764.50;2210340;39;114852;-55
2021/07/23 04:03:12;;;;;;;;;;;;;;;24.82;49.49;101753.50;2213901;39;115470;-54
2021/07/23 04:04:44;;;;;;;;;;;;;;;24.79;49.16;101755.00;2210187;39;115504;-54
2021/07/23 04:06:16;;;;;;;;;;;;;;;24.77;49.30;101754.47;2210384;39;115711;-54
2021/07/23 04:07:48;;;;;;;;;;;;;;;24.80;49.78;101758.66;2210909;39;116105;-54
2021/07/23 04:09:20;;;;;;;;;;;;;;;24.78;49.59;101746.81;2211185;39;115794;-54
2021/07/23 04:10:52;;;;;;;;;;;;;;;24.77;49.43;101750.78;2210595;39;115596;-54
2021/07/23 04:12:24;;;;;;;;;;;;;;;24.80;49.56;101755.81;2209571;39;115520;-54
2021/07/23 04:13:55;;;;;;;;;;;;;;;24.79;49.65;101748.50;2210908;39;116491;-54
2021/07/23 04:15:27;;;;;;;;;;;;;;;24.77;49.37;101747.97;2209973;39;114507;-54
2021/07/23 04:16:59;;;;;;;;;;;;;;;24.79;49.57;101755.00;2210492;39;115792;-54
2021/07/23 04:18:30;;;;;;;;;;;;;;;24.76;49.23;101749.94;2209747;39;116508;-54
2021/07/23 04:20:03;;;;;;;;;;;;;;;24.75;49.42;101742.66;2204816;39;114574;-54
2021/07/23 04:21:34;;;;;;;;;;;;;;;24.72;49.35;101739.59;2208776;39;116187;-54
2021/07/23 04:23:06;;;;;;;;;;;;;;;24.74;49.38;101742.97;2208137;39;115781;-54
2021/07/23 04:24:38;;;;;;;;;;;;;;;24.72;49.76;101745.25;2210231;39;115599;-54
2021/07/23 04:26:10;;;;;;;;;;;;;;;24.73;49.60;101735.63;2210433;39;113971;-53
2021/07/23 04:27:41;;;;;;;;;;;;;;;24.72;49.64;101736.78;2210701;39;113768;-54
2021/07/23 04:29:13;;;;;;;;;;;;;;;24.70;49.30;101741.94;2209821;39;113826;-54
2021/07/23 04:30:45;;;;;;;;;;;;;;;24.70;49.39;101739.94;2208411;39;113872;-53
2021/07/23 04:32:16;;;;;;;;;;;;;;;24.69;49.28;101743.06;2210567;39;113990;-54
2021/07/23 04:33:48;;;;;;;;;;;;;;;24.71;49.44;101752.88;2210991;39;113711;-54
2021/07/23 04:35:20;;;;;;;;;;;;;;;24.65;49.63;101745.69;2210841;39;113823;-54
2021/07/23 04:36:51;;;;;;;;;;;;;;;24.66;49.58;101746.53;2210535;39;113786;-54
2021/07/23 04:38:23;;;;;;;;;;;;;;;24.67;49.57;101739.72;2203534;39;113861;-53
2021/07/23 04:39:55;;;;;;;;;;;;;;;24.70;49.67;101742.75;2211055;39;114038;-54
2021/07/23 04:41:26;;;;;;;;;;;;;;;24.66;49.76;101738.91;2211581;39;113674;-54
2021/07/23 04:42:58;;;;;;;;;;;;;;;24.65;49.55;101737.22;2210701;39;113832;-54
2021/07/23 04:44:30;;;;;;;;;;;;;;;24.64;49.91;101737.53;2210016;39;113696;-54
2021/07/23 04:46:02;;;;;;;;;;;;;;;24.64;49.87;101738.38;2213168;39;113750;-55
2021/07/23 04:47:33;;;;;;;;;;;;;;;24.65;49.50;101734.41;2203834;39;114817;-53
2021/07/23 04:49:05;;;;;;;;;;;;;;;24.66;49.79;101741.72;2207381;39;114804;-54
2021/07/23 04:50:37;;;;;;;;;;;;;;;24.65;49.71;101742.88;2210628;39;115347;-54
2021/07/23 04:52:09;;;;;;;;;;;;;;;24.63;49.71;101742.34;2210913;39;114863;-54
2021/07/23 04:53:40;;;;;;;;;;;;;;;24.65;49.87;101742.03;2210766;39;114929;-53
2021/07/23 04:55:13;;;;;;;;;;;;;;;24.65;49.85;101745.69;2211023;39;113971;-54
2021/07/23 04:56:46;;;;;;;;;;;;;;;24.63;49.54;101741.50;2210905;39;114288;-54
2021/07/23 04:58:17;;;;;;;;;;;;;;;24.60;49.98;101736.50;2210508;39;114758;-54
2021/07/23 04:59:49;;;;;;;;;;;;;;;24.61;50.12;101732.53;2211176;39;114861;-54
2021/07/23 05:01:21;;;;;;;;;;;;;;;24.62;49.85;101731.38;2209306;39;113874;-54
2021/07/23 05:02:54;;;;;;;;;;;;;;;24.62;50.04;101735.00;2210393;39;114928;-53
2021/07/23 05:04:26;;;;;;;;;;;;;;;24.60;49.78;101731.69;2210768;39;113978;-54
2021/07/23 05:05:58;;;;;;;;;;;;;;;24.61;49.95;101730.53;2210639;39;114797;-54
2021/07/23 05:07:30;;;;;;;;;;;;;;;24.65;49.67;101727.91;2213788;39;114851;-54
2021/07/23 05:09:03;;;;;;;;;;;;;;;24.63;50.13;101728.22;2210756;39;116701;-54
2021/07/23 05:10:36;;;;;;;;;;;;;;;24.59;49.95;101734.81;2209918;39;115452;-54
2021/07/23 05:12:08;;;;;;;;;;;;;;;24.57;49.60;101718.19;2211703;39;115838;-54
2021/07/23 05:13:41;;;;;;;;;;;;;;;24.57;50.02;101729.50;2211661;39;115797;-54
2021/07/23 05:15:13;;;;;;;;;;;;;;;24.62;49.78;101722.91;2203992;39;115718;-54
2021/07/23 05:16:45;;;;;;;;;;;;;;;24.59;50.06;101724.34;2201865;39;115425;-54
2021/07/23 05:18:18;;;;;;;;;;;;;;;24.58;50.16;101722.69;2209981;39;115937;-54
2021/07/23 05:19:49;;;;;;;;;;;;;;;24.57;50.53;101725.84;2211854;39;115830;-54
2021/07/23 05:21:21;;;;;;;;;;;;;;;24.59;50.13;101729.16;2211104;39;115189;-54
2021/07/23 05:22:53;;;;;;;;;;;;;;;24.61;50.21;101724.88;2211596;39;115493;-54
2021/07/23 05:24:24;;;;;;;;;;;;;;;24.58;50.23;101724.66;2210772;39;115552;-54
2021/07/23 05:25:57;;;;;;;;;;;;;;;24.56;50.10;101729.81;2210502;39;115428;-54
2021/07/23 05:27:29;;;;;;;;;;;;;;;24.54;50.21;101729.28;2209602;39;115733;-55
2021/07/23 05:29:02;;;;;;;;;;;;;;;24.55;49.82;101730.97;2214089;39;115446;-54
2021/07/23 05:30:34;;;;;;;;;;;;;;;24.60;49.93;101730.84;2216195;39;113787;-54
2021/07/23 05:32:06;;;;;;;;;;;;;;;24.58;49.97;101733.13;2208992;39;113840;-55
2021/07/23 05:33:38;;;;;;;;;;;;;;;24.55;50.14;101728.13;2214245;39;114064;-54
2021/07/23 05:35:10;;;;;;;;;;;;;;;24.52;50.04;101729.63;2210578;39;114015;-54
2021/07/23 05:36:41;;;;;;;;;;;;;;;24.54;50.12;101727.28;2208798;39;113808;-54
2021/07/23 05:38:14;;;;;;;;;;;;;;;24.52;50.15;101728.78;2211198;39;114003;-55
2021/07/23 05:39:46;;;;;;;;;;;;;;;24.51;50.04;101722.28;2208015;39;114037;-54
2021/07/23 05:41:18;;;;;;;;;;;;;;;24.50;50.16;101725.41;2210362;39;113779;-54
2021/07/23 05:42:51;;;;;;;;;;;;;;;24.54;49.98;101721.63;2211250;39;113687;-56
2021/07/23 05:44:22;;;;;;;;;;;;;;;24.53;50.24;101716.31;2211419;39;113829;-54
2021/07/23 05:45:54;;;;;;;;;;;;;;;24.51;50.30;101718.63;2211743;39;113890;-54
2021/07/23 05:47:27;;;;;;;;;;;;;;;24.48;50.33;101711.63;2211358;39;113891;-54
2021/07/23 05:48:58;;;;;;;;;;;;;;;24.47;50.48;101711.94;2211425;39;114059;-53
2021/07/23 05:50:30;;;;;;;;;;;;;;;24.50;50.17;101708.47;2209728;39;113848;-53
2021/07/23 05:52:02;;;;;;;;;;;;;;;24.53;50.22;101708.66;2211828;39;114010;-54
2021/07/23 05:53:34;;;;;;;;;;;;;;;24.51;50.41;101712.97;2211594;39;114873;-54
2021/07/23 05:55:06;;;;;;;;;;;;;;;24.48;50.26;101713.63;2210531;39;115070;-54
2021/07/23 05:56:38;;;;;;;;;;;;;;;24.46;50.59;101713.06;2205239;39;115090;-54
2021/07/23 05:58:09;;;;;;;;;;;;;;;24.47;50.14;101712.78;2209675;39;113954;-54
2021/07/23 05:59:41;;;;;;;;;;;;;;;24.48;50.50;101719.25;2211456;39;114790;-53
2021/07/23 06:01:13;;;;;;;;;;;;;;;24.45;50.48;101719.88;2210560;39;115094;-54
2021/07/23 06:02:45;;;;;;;;;;;;;;;24.47;50.18;101721.25;2211520;39;114901;-54
2021/07/23 06:04:16;;;;;;;;;;;;;;;24.42;50.21;101717.69;2211434;39;115076;-53
2021/07/23 06:05:49;;;;;;;;;;;;;;;24.46;50.13;101713.06;2211691;39;115049;-54
2021/07/23 06:07:20;;;;;;;;;;;;;;;24.44;50.27;101709.75;2211196;39;114835;-54
2021/07/23 06:08:54;;;;;;;;;;;;;;;24.45;50.31;101705.75;2211473;39;114915;-54
2021/07/23 06:10:25;;;;;;;;;;;;;;;24.44;50.33;101707.72;2211386;39;115295;-53
2021/07/23 06:11:57;;;;;;;;;;;;;;;24.44;50.31;101704.91;2204290;39;114794;-54
2021/07/23 06:13:29;;;;;;;;;;;;;;;24.44;50.26;101704.09;2211561;39;114907;-54
2021/07/23 06:15:01;;;;;;;;;;;;;;;24.44;50.11;101698.44;2211703;39;115460;-54
2021/07/23 06:16:33;;;;;;;;;;;;;;;24.48;50.47;101696.66;2216780;39;115433;-54
2021/07/23 06:18:05;;;;;;;;;;;;;;;24.45;50.66;101698.13;2210491;39;115606;-54
2021/07/23 06:19:38;;;;;;;;;;;;;;;24.45;50.39;101697.28;2207071;39;115968;-54
2021/07/23 06:21:10;;;;;;;;;;;;;;;24.46;50.36;101698.94;2206964;39;115628;-54
2021/07/23 06:22:42;;;;;;;;;;;;;;;24.47;50.32;101692.16;2208540;39;115575;-54
2021/07/23 06:24:13;;;;;;;;;;;;;;;24.47;50.55;101697.81;2210820;39;116078;-54
2021/07/23 06:25:45;;;;;;;;;;;;;;;24.48;50.39;101691.00;2208526;39;115559;-53
2021/07/23 06:27:19;;;;;;;;;;;;;;;24.46;50.39;101691.31;2210570;39;115549;-54
2021/07/23 06:28:52;;;;;;;;;;;;;;;24.47;50.38;101692.16;2210472;39;115630;-55
2021/07/23 06:30:23;;;;;;;;;;;;;;;24.46;50.63;101691.31;2210027;39;114938;-54
2021/07/23 06:31:57;;;;;;;;;;;;;;;24.46;50.29;101684.81;2211567;39;115965;-54
2021/07/23 06:33:29;;;;;;;;;;;;;;;24.45;50.81;101689.63;2211287;39;115310;-53
2021/07/23 06:35:01;;;;;;;;;;;;;;;24.46;50.61;101687.66;2213989;39;115230;-54
2021/07/23 06:36:33;;;;;;;;;;;;;;;24.47;50.47;101678.03;2209371;39;113994;-53
2021/07/23 06:38:05;;;;;;;;;;;;;;;24.46;50.55;101682.84;2210407;39;113985;-53
2021/07/23 06:39:37;;;;;;;;;;;;;;;24.48;50.15;101683.38;2211207;39;113791;-53
2021/07/23 06:41:09;;;;;;;;;;;;;;;24.47;50.10;101684.53;2210564;39;113749;-53
2021/07/23 06:42:42;;;;;;;;;;;;;;;24.47;50.14;101684.53;2208068;39;113864;-53
2021/07/23 06:44:14;;;;;;;;;;;;;;;24.48;50.16;101691.84;2210954;39;113914;-54
2021/07/23 06:45:49;;;;;;;;;;;;;;;24.48;50.47;101689.03;2210436;39;113977;-53
2021/07/23 06:47:21;;;;;;;;;;;;;;;24.45;50.46;101689.63;2203761;39;113797;-54
2021/07/23 06:48:53;;;;;;;;;;;;;;;24.44;50.29;101695.63;2210519;39;114372;-53
2021/07/23 06:50:24;;;;;;;;;;;;;;;24.44;50.06;101693.59;2211231;39;113786;-53
2021/07/23 06:51:56;;;;;;;;;;;;;;;24.45;49.97;101700.09;2211450;39;113680;-53
2021/07/23 06:53:28;;;;;;;;;;;;;;;24.46;49.95;101698.94;2210594;39;114102;-53
2021/07/23 06:55:00;;;;;;;;;;;;;;;24.47;50.33;101689.34;2211140;39;113799;-54
2021/07/23 06:56:31;;;;;;;;;;;;;;;24.45;50.35;101688.78;2212745;39;113819;-53
2021/07/23 06:58:03;;;;;;;;;;;;;;;24.44;50.04;101702.09;2208460;39;114117;-54
2021/07/23 06:59:35;;;;;;;;;;;;;;;24.45;50.23;101700.09;2210716;39;115087;-53
2021/07/23 07:01:08;;;;;;;;;;;;;;;24.46;50.15;101698.94;2210077;39;114408;-54
2021/07/23 07:02:41;;;;;;;;;;;;;;;24.48;50.15;101702.31;2211292;39;114170;-53
2021/07/23 07:04:12;;;;;;;;;;;;;;;24.44;49.90;101701.28;2210114;39;114864;-54
2021/07/23 07:05:48;;;;;;;;;;;;;;;24.46;50.30;101704.59;2211030;39;114746;-54
2021/07/23 07:07:20;;;;;;;;;;;;;;;24.44;50.42;101701.28;2210853;39;114861;-53
2021/07/23 07:08:52;;;;;;;;;;;;;;;24.44;50.20;101701.28;2205139;39;114793;-53
2021/07/23 07:10:24;;;;;;;;;;;;;;;24.44;50.00;101698.44;2210025;39;114889;-53
2021/07/23 07:11:57;;;;;;;;;;;;;;;24.44;50.26;101704.91;2206792;39;114755;-53
2021/07/23 07:13:29;;;;;;;;;;;;;;;24.43;50.03;101696.78;2208842;39;113811;-53
2021/07/23 07:15:00;;;;;;;;;;;;;;;24.43;50.40;101700.44;2210522;39;114902;-53
2021/07/23 07:16:32;;;;;;;;;;;;;;;24.44;50.21;101701.28;2206757;39;114545;-54
2021/07/23 07:18:04;;;;;;;;;;;;;;;24.44;50.37;101696.44;2201123;39;115048;-53
2021/07/23 07:19:35;;;;;;;;;;;;;;;24.45;50.40;101705.75;2208773;39;115525;-53
2021/07/23 07:21:08;;;;;;;;;;;;;;;24.45;50.05;101700.94;2211336;39;115575;-53
2021/07/23 07:22:39;;;;;;;;;;;;;;;24.45;50.04;101695.28;2211129;39;115606;-53
2021/07/23 07:24:11;;;;;;;;;;;;;;;24.48;50.21;101705.13;2210795;39;115911;-54
2021/07/23 07:25:43;;;;;;;;;;;;;;;24.48;50.10;101708.81;2211511;39;115531;-54
2021/07/23 07:27:14;;;;;;;;;;;;;;;24.48;50.18;101711.63;2208145;39;114665;-54
2021/07/23 07:28:46;;;;;;;;;;;;;;;24.49;50.31;101701.13;2210983;39;115778;-53
2021/07/23 07:30:18;;;;;;;;;;;;;;;24.51;50.36;101698.84;2210407;39;114566;-53
2021/07/23 07:31:50;;;;;;;;;;;;;;;24.51;50.13;101705.34;2211166;39;115457;-53
2021/07/23 07:33:21;;;;;;;;;;;;;;;24.55;49.84;101694.22;2209456;39;116074;-54
2021/07/23 07:34:53;;;;;;;;;;;;;;;24.54;49.98;101701.84;2211118;39;115583;-53
2021/07/23 07:36:25;;;;;;;;;;;;;;;24.56;49.75;101705.22;2210283;39;115642;-54
2021/07/23 07:37:57;;;;;;;;;;;;;;;24.56;49.61;101699.56;2210285;39;114444;-53
2021/07/23 07:39:29;;;;;;;;;;;;;;;24.58;49.53;101707.72;2209733;39;114399;-53
2021/07/23 07:41:01;;;;;;;;;;;;;;;24.58;49.43;101700.06;2212134;39;115643;-54
2021/07/23 07:42:32;;;;;;;;;;;;;;;24.57;49.09;101706.06;2209434;39;114034;-54
2021/07/23 07:44:10;;;;;;;;;;;;;;;24.56;49.29;101702.41;2210174;39;114173;-53
2021/07/23 07:45:41;;;;;;;;;;;;;;;24.56;49.40;101702.41;2210948;39;113825;-53
2021/07/23 07:47:13;;;;;;;;;;;;;;;24.60;50.06;101702.59;2211229;39;114002;-53